createdAt,value
2023-01-06T00:00:07.390Z,99824.12
2023-01-06T00:00:17.363Z,99823.88
2023-01-06T00:00:27.449Z,99820.82
2023-01-06T00:00:37.464Z,99825.50
2023-01-06T00:00:47.467Z,99822.56
2023-01-06T00:00:57.480Z,99821.16
2023-01-06T00:01:07.373Z,99825.11
2023-01-06T00:01:17.407Z,99823.69
2023-01-06T00:01:27.400Z,99824.86
2023-01-06T00:01:37.292Z,99821.26
2023-01-06T00:01:47.358Z,99820.24
2023-01-06T00:01:57.286Z,99824.03
2023-01-06T00:02:07.362Z,99823.16
2023-01-06T00:02:17.468Z,99822.44
2023-01-06T00:02:27.445Z,99822.77
2023-01-06T00:02:37.352Z,99824.83
2023-01-06T00:02:47.316Z,99825.59
2023-01-06T00:02:57.383Z,99829.08
2023-01-06T00:03:07.379Z,99826.91
2023-01-06T00:03:17.324Z,99826.34
2023-01-06T00:03:27.381Z,99823.81
2023-01-06T00:03:37.423Z,99827.12
2023-01-06T00:03:47.399Z,99824.61
2023-01-06T00:03:57.354Z,99825.32
2023-01-06T00:04:07.287Z,99825.07
2023-01-06T00:04:17.373Z,99824.47
2023-01-06T00:04:27.292Z,99829.69
2023-01-06T00:04:37.399Z,99831.02
2023-01-06T00:04:47.388Z,99828.76
2023-01-06T00:04:57.447Z,99828.09
2023-01-06T00:05:07.419Z,99828.38
2023-01-06T00:05:17.396Z,99834.73
2023-01-06T00:05:27.427Z,99836.11
2023-01-06T00:05:37.297Z,99836.25
2023-01-06T00:05:47.414Z,99831.06
2023-01-06T00:05:57.381Z,99830.23
2023-01-06T00:06:07.319Z,99834.52
2023-01-06T00:06:17.427Z,99829.06
2023-01-06T00:06:27.563Z,99829.69
2023-01-06T00:06:37.419Z,99830.21
2023-01-06T00:06:47.412Z,99832.41
2023-01-06T00:06:57.300Z,99827.52
2023-01-06T00:07:07.363Z,99833.16
2023-01-06T00:07:17.390Z,99831.66
2023-01-06T00:07:27.339Z,99828.08
2023-01-06T00:07:37.398Z,99832.70
2023-01-06T00:07:47.328Z,99832.77
2023-01-06T00:07:57.296Z,99831.14
2023-01-06T00:08:07.397Z,99831.63
2023-01-06T00:08:17.395Z,99829.08
2023-01-06T00:08:27.317Z,99828.66
2023-01-06T00:08:37.376Z,99828.74
2023-01-06T00:08:47.317Z,99823.80
2023-01-06T00:08:57.327Z,99825.83
2023-01-06T00:09:07.350Z,99829.56
2023-01-06T00:09:17.423Z,99830.97
2023-01-06T00:09:27.293Z,99831.33
2023-01-06T00:09:37.365Z,99829.23
2023-01-06T00:09:47.424Z,99826.10
2023-01-06T00:09:57.288Z,99825.69
2023-01-06T00:10:07.424Z,99823.55
2023-01-06T00:10:17.406Z,99824.70
2023-01-06T00:10:27.386Z,99829.26
2023-01-06T00:10:37.441Z,99824.86
2023-01-06T00:10:47.405Z,99825.05
2023-01-06T00:10:57.449Z,99822.27
2023-01-06T00:11:07.418Z,99827.70
2023-01-06T00:11:17.395Z,99818.72
2023-01-06T00:11:27.301Z,99814.50
2023-01-06T00:11:37.416Z,99821.11
2023-01-06T00:11:47.364Z,99822.80
2023-01-06T00:11:57.293Z,99823.09
2023-01-06T00:12:07.401Z,99822.45
2023-01-06T00:12:17.315Z,99821.56
2023-01-06T00:12:32.134Z,99814.70
2023-01-06T00:12:37.390Z,99816.19
2023-01-06T00:12:47.417Z,99818.66
2023-01-06T00:12:57.320Z,99817.84
2023-01-06T00:13:07.297Z,99815.91
2023-01-06T00:13:17.345Z,99819.98
2023-01-06T00:13:27.413Z,99819.93
2023-01-06T00:13:37.332Z,99817.95
2023-01-06T00:13:47.440Z,99816.80
2023-01-06T00:13:57.320Z,99815.84
2023-01-06T00:14:07.350Z,99822.00
2023-01-06T00:14:17.343Z,99821.09
2023-01-06T00:14:27.359Z,99816.16
2023-01-06T00:14:37.308Z,99818.39
2023-01-06T00:14:47.392Z,99817.40
2023-01-06T00:14:57.350Z,99818.33
2023-01-06T00:15:07.424Z,99820.16
2023-01-06T00:15:17.300Z,99816.53
2023-01-06T00:15:27.360Z,99815.83
2023-01-06T00:15:37.461Z,99820.08
2023-01-06T00:15:47.494Z,99818.92
2023-01-06T00:15:57.402Z,99820.91
2023-01-06T00:16:07.324Z,99817.44
2023-01-06T00:16:17.356Z,99816.12
2023-01-06T00:16:27.335Z,99820.87
2023-01-06T00:16:37.300Z,99823.51
2023-01-06T00:16:47.425Z,99817.89
2023-01-06T00:16:57.415Z,99821.11
2023-01-06T00:17:07.386Z,99819.54
2023-01-06T00:17:17.284Z,99821.19
2023-01-06T00:17:27.381Z,99821.69
2023-01-06T00:17:37.403Z,99825.69
2023-01-06T00:17:47.340Z,99823.22
2023-01-06T00:17:57.443Z,99830.72
2023-01-06T00:18:07.329Z,99826.10
2023-01-06T00:18:17.386Z,99826.02
2023-01-06T00:18:27.403Z,99827.83
2023-01-06T00:18:37.385Z,99826.56
2023-01-06T00:18:47.358Z,99825.70
2023-01-06T00:18:57.399Z,99826.31
2023-01-06T00:19:07.481Z,99829.61
2023-01-06T00:19:17.358Z,99830.05
2023-01-06T00:19:27.294Z,99831.03
2023-01-06T00:19:37.430Z,99819.64
2023-01-06T00:19:47.343Z,99825.56
2023-01-06T00:19:57.356Z,99830.62
2023-01-06T00:20:07.418Z,99832.52
2023-01-06T00:20:17.384Z,99829.66
2023-01-06T00:20:27.394Z,99823.38
2023-01-06T00:20:37.323Z,99825.84
2023-01-06T00:20:47.417Z,99824.78
2023-01-06T00:20:57.360Z,99831.11
2023-01-06T00:21:07.369Z,99831.36
2023-01-06T00:21:17.303Z,99829.22
2023-01-06T00:21:27.377Z,99828.23
2023-01-06T00:21:37.332Z,99828.61
2023-01-06T00:21:47.319Z,99833.27
2023-01-06T00:21:57.303Z,99834.70
2023-01-06T00:22:07.358Z,99830.60
2023-01-06T00:22:17.315Z,99826.95
2023-01-06T00:22:27.362Z,99830.60
2023-01-06T00:22:37.300Z,99827.67
2023-01-06T00:22:47.330Z,99829.73
2023-01-06T00:22:57.417Z,99829.43
2023-01-06T00:23:07.421Z,99824.53
2023-01-06T00:23:17.317Z,99832.67
2023-01-06T00:23:27.376Z,99829.22
2023-01-06T00:23:37.328Z,99832.16
2023-01-06T00:23:47.300Z,99830.56
2023-01-06T00:23:57.328Z,99829.73
2023-01-06T00:24:07.392Z,99832.21
2023-01-06T00:24:17.296Z,99829.58
2023-01-06T00:24:27.284Z,99830.81
2023-01-06T00:24:37.475Z,99829.58
2023-01-06T00:24:47.350Z,99825.25
2023-01-06T00:24:57.291Z,99828.00
2023-01-06T00:25:07.349Z,99825.03
2023-01-06T00:25:17.332Z,99828.58
2023-01-06T00:25:27.411Z,99824.78
2023-01-06T00:25:37.436Z,99824.50
2023-01-06T00:25:47.360Z,99827.88
2023-01-06T00:25:57.410Z,99827.46
2023-01-06T00:26:07.372Z,99826.66
2023-01-06T00:26:17.330Z,99826.99
2023-01-06T00:26:27.338Z,99824.82
2023-01-06T00:26:37.390Z,99828.89
2023-01-06T00:26:47.313Z,99823.50
2023-01-06T00:26:57.350Z,99827.80
2023-01-06T00:27:07.357Z,99828.06
2023-01-06T00:27:17.357Z,99825.86
2023-01-06T00:27:27.322Z,99823.94
2023-01-06T00:27:37.391Z,99819.59
2023-01-06T00:27:47.366Z,99821.81
2023-01-06T00:27:57.310Z,99824.06
2023-01-06T00:28:07.295Z,99819.11
2023-01-06T00:28:17.294Z,99820.56
2023-01-06T00:28:27.285Z,99815.55
2023-01-06T00:28:37.373Z,99813.41
2023-01-06T00:28:47.420Z,99816.05
2023-01-06T00:28:57.450Z,99813.41
2023-01-06T00:29:07.331Z,99818.38
2023-01-06T00:29:17.353Z,99813.85
2023-01-06T00:29:27.426Z,99814.17
2023-01-06T00:29:37.317Z,99809.22
2023-01-06T00:29:47.394Z,99811.03
2023-01-06T00:29:57.399Z,99815.18
2023-01-06T00:30:07.302Z,99810.15
2023-01-06T00:30:17.333Z,99811.91
2023-01-06T00:30:27.290Z,99809.41
2023-01-06T00:30:37.388Z,99809.42
2023-01-06T00:30:47.442Z,99812.98
2023-01-06T00:30:57.430Z,99811.84
2023-01-06T00:31:07.464Z,99816.08
2023-01-06T00:31:17.405Z,99809.70
2023-01-06T00:31:27.385Z,99809.86
2023-01-06T00:31:37.317Z,99811.02
2023-01-06T00:31:47.422Z,99810.83
2023-01-06T00:31:57.360Z,99809.67
2023-01-06T00:32:07.422Z,99813.98
2023-01-06T00:32:17.348Z,99816.11
2023-01-06T00:32:27.339Z,99822.80
2023-01-06T00:32:37.293Z,99819.54
2023-01-06T00:32:47.303Z,99812.39
2023-01-06T00:32:57.431Z,99811.55
2023-01-06T00:33:07.356Z,99821.08
2023-01-06T00:33:17.423Z,99817.78
2023-01-06T00:33:27.371Z,99819.16
2023-01-06T00:33:37.347Z,99815.39
2023-01-06T00:33:47.420Z,99813.72
2023-01-06T00:33:57.300Z,99817.56
2023-01-06T00:34:07.334Z,99814.13
2023-01-06T00:34:17.368Z,99814.30
2023-01-06T00:34:27.426Z,99814.05
2023-01-06T00:34:37.354Z,99814.73
2023-01-06T00:34:47.372Z,99816.52
2023-01-06T00:34:57.384Z,99813.27
2023-01-06T00:35:07.410Z,99812.36
2023-01-06T00:35:17.293Z,99813.42
2023-01-06T00:35:27.432Z,99813.42
2023-01-06T00:35:37.327Z,99811.77
2023-01-06T00:35:47.336Z,99809.80
2023-01-06T00:35:57.368Z,99816.85
2023-01-06T00:36:07.302Z,99815.02
2023-01-06T00:36:17.292Z,99809.30
2023-01-06T00:36:27.322Z,99811.61
2023-01-06T00:36:37.320Z,99813.20
2023-01-06T00:36:47.336Z,99810.45
2023-01-06T00:36:57.321Z,99813.47
2023-01-06T00:37:07.320Z,99819.60
2023-01-06T00:37:17.309Z,99814.38
2023-01-06T00:37:27.433Z,99812.83
2023-01-06T00:37:37.404Z,99814.12
2023-01-06T00:37:47.443Z,99810.16
2023-01-06T00:37:57.367Z,99807.52
2023-01-06T00:38:07.371Z,99809.03
2023-01-06T00:38:17.444Z,99812.17
2023-01-06T00:38:27.413Z,99808.70
2023-01-06T00:38:37.424Z,99811.13
2023-01-06T00:38:47.344Z,99803.23
2023-01-06T00:38:57.430Z,99808.59
2023-01-06T00:39:07.404Z,99803.23
2023-01-06T00:39:17.325Z,99802.82
2023-01-06T00:39:27.339Z,99804.47
2023-01-06T00:39:37.353Z,99807.28
2023-01-06T00:39:47.397Z,99803.31
2023-01-06T00:39:57.344Z,99800.90
2023-01-06T00:40:07.414Z,99802.16
2023-01-06T00:40:17.382Z,99799.85
2023-01-06T00:40:27.290Z,99810.98
2023-01-06T00:40:37.384Z,99806.29
2023-01-06T00:40:47.305Z,99802.49
2023-01-06T00:40:57.325Z,99803.75
2023-01-06T00:41:07.312Z,99805.07
2023-01-06T00:41:17.357Z,99805.95
2023-01-06T00:41:27.349Z,99806.03
2023-01-06T00:41:37.375Z,99804.14
2023-01-06T00:41:47.290Z,99801.83
2023-01-06T00:41:57.414Z,99803.05
2023-01-06T00:42:07.380Z,99805.46
2023-01-06T00:42:17.420Z,99800.67
2023-01-06T00:42:27.378Z,99797.78
2023-01-06T00:42:37.420Z,99801.27
2023-01-06T00:42:47.298Z,99800.95
2023-01-06T00:42:57.388Z,99803.81
2023-01-06T00:43:07.372Z,99800.34
2023-01-06T00:43:17.418Z,99802.66
2023-01-06T00:43:27.301Z,99805.42
2023-01-06T00:43:37.429Z,99804.41
2023-01-06T00:43:47.300Z,99802.90
2023-01-06T00:43:57.396Z,99806.80
2023-01-06T00:44:07.499Z,99802.59
2023-01-06T00:44:17.300Z,99801.17
2023-01-06T00:44:27.297Z,99804.80
2023-01-06T00:44:37.437Z,99807.44
2023-01-06T00:44:47.418Z,99810.00
2023-01-06T00:44:57.370Z,99819.86
2023-01-06T00:45:07.326Z,99814.09
2023-01-06T00:45:17.303Z,99812.21
2023-01-06T00:45:27.397Z,99804.20
2023-01-06T00:45:37.415Z,99803.11
2023-01-06T00:45:47.431Z,99808.97
2023-01-06T00:45:57.396Z,99808.31
2023-01-06T00:46:07.343Z,99808.97
2023-01-06T00:46:17.428Z,99808.97
2023-01-06T00:46:27.365Z,99807.77
2023-01-06T00:46:37.493Z,99806.78
2023-01-06T00:46:47.314Z,99806.61
2023-01-06T00:46:57.287Z,99801.66
2023-01-06T00:47:07.329Z,99802.34
2023-01-06T00:47:17.465Z,99799.46
2023-01-06T00:47:27.399Z,99808.95
2023-01-06T00:47:37.454Z,99804.05
2023-01-06T00:47:47.307Z,99802.62
2023-01-06T00:47:57.423Z,99805.39
2023-01-06T00:48:07.328Z,99798.48
2023-01-06T00:48:17.381Z,99797.66
2023-01-06T00:48:27.382Z,99799.45
2023-01-06T00:48:37.295Z,99801.12
2023-01-06T00:49:03.849Z,99796.79
2023-01-06T00:49:04.973Z,99792.50
2023-01-06T00:49:07.940Z,99794.09
2023-01-06T00:49:17.393Z,99792.99
2023-01-06T00:49:27.352Z,99794.91
2023-01-06T00:49:37.342Z,99799.28
2023-01-06T00:49:47.419Z,99804.09
2023-01-06T00:49:57.299Z,99800.96
2023-01-06T00:50:07.416Z,99799.30
2023-01-06T00:50:17.314Z,99790.61
2023-01-06T00:50:27.431Z,99789.88
2023-01-06T00:50:37.306Z,99807.03
2023-01-06T00:50:47.297Z,99797.38
2023-01-06T00:50:57.373Z,99799.74
2023-01-06T00:51:07.378Z,99799.36
2023-01-06T00:51:17.377Z,99796.38
2023-01-06T00:51:27.329Z,99800.42
2023-01-06T00:51:37.363Z,99798.36
2023-01-06T00:51:47.294Z,99795.06
2023-01-06T00:51:57.377Z,99793.33
2023-01-06T00:52:07.312Z,99794.97
2023-01-06T00:52:17.331Z,99789.36
2023-01-06T00:52:27.429Z,99796.79
2023-01-06T00:52:37.291Z,99793.48
2023-01-06T00:52:47.356Z,99797.45
2023-01-06T00:52:57.339Z,99791.28
2023-01-06T00:53:07.411Z,99793.92
2023-01-06T00:53:17.302Z,99787.09
2023-01-06T00:53:27.349Z,99791.18
2023-01-06T00:53:37.410Z,99785.43
2023-01-06T00:53:47.393Z,99787.39
2023-01-06T00:53:57.397Z,99793.66
2023-01-06T00:54:07.333Z,99799.27
2023-01-06T00:54:17.407Z,99791.33
2023-01-06T00:54:27.302Z,99797.27
2023-01-06T00:54:37.421Z,99798.77
2023-01-06T00:54:47.409Z,99786.77
2023-01-06T00:54:57.426Z,99793.78
2023-01-06T00:55:07.444Z,99791.89
2023-01-06T00:55:17.392Z,99790.67
2023-01-06T00:55:27.296Z,99794.77
2023-01-06T00:55:37.374Z,99798.59
2023-01-06T00:55:47.333Z,99792.56
2023-01-06T00:55:57.323Z,99793.45
2023-01-06T00:56:07.403Z,99795.44
2023-01-06T00:56:17.421Z,99793.39
2023-01-06T00:56:27.413Z,99787.52
2023-01-06T00:56:37.400Z,99789.66
2023-01-06T00:56:47.366Z,99787.34
2023-01-06T00:56:57.369Z,99791.39
2023-01-06T00:57:07.381Z,99784.38
2023-01-06T00:57:17.394Z,99787.22
2023-01-06T00:57:27.427Z,99785.36
2023-01-06T00:57:37.355Z,99787.22
2023-01-06T00:57:47.378Z,99794.82
2023-01-06T00:57:57.318Z,99792.84
2023-01-06T00:58:07.408Z,99789.98
2023-01-06T00:58:17.415Z,99793.99
2023-01-06T00:58:27.314Z,99787.06
2023-01-06T00:58:37.367Z,99787.61
2023-01-06T00:58:47.321Z,99789.09
2023-01-06T00:58:57.415Z,99787.27
2023-01-06T00:59:07.369Z,99787.45
2023-01-06T00:59:17.408Z,99790.81
2023-01-06T00:59:27.383Z,99788.50
2023-01-06T00:59:37.426Z,99789.25
2023-01-06T00:59:47.321Z,99794.20
2023-01-06T00:59:57.372Z,99781.05
2023-01-06T01:00:07.394Z,99786.88
2023-01-06T01:00:17.375Z,99786.36
2023-01-06T01:00:27.289Z,99779.41
2023-01-06T01:00:37.299Z,99782.87
2023-01-06T01:00:47.350Z,99784.79
2023-01-06T01:00:57.393Z,99780.72
2023-01-06T01:01:07.536Z,99778.06
2023-01-06T01:01:17.496Z,99782.79
2023-01-06T01:01:27.517Z,99781.62
2023-01-06T01:01:37.557Z,99794.90
2023-01-06T01:01:47.523Z,99781.64
2023-01-06T01:01:57.510Z,99782.05
2023-01-06T01:02:07.401Z,99785.20
2023-01-06T01:02:17.546Z,99784.02
2023-01-06T01:02:27.619Z,99781.22
2023-01-06T01:02:37.388Z,99783.30
2023-01-06T01:02:47.377Z,99786.71
2023-01-06T01:02:57.351Z,99782.09
2023-01-06T01:03:07.353Z,99782.23
2023-01-06T01:03:17.392Z,99784.58
2023-01-06T01:03:27.346Z,99786.23
2023-01-06T01:03:37.417Z,99785.66
2023-01-06T01:03:47.405Z,99785.74
2023-01-06T01:03:57.330Z,99784.58
2023-01-06T01:04:07.406Z,99791.02
2023-01-06T01:04:17.380Z,99786.12
2023-01-06T01:04:27.321Z,99788.00
2023-01-06T01:04:37.295Z,99781.56
2023-01-06T01:04:47.383Z,99787.18
2023-01-06T01:04:57.330Z,99785.78
2023-01-06T01:05:07.295Z,99782.42
2023-01-06T01:05:17.362Z,99784.41
2023-01-06T01:05:27.412Z,99787.86
2023-01-06T01:05:37.386Z,99790.90
2023-01-06T01:05:47.319Z,99785.02
2023-01-06T01:05:57.351Z,99788.65
2023-01-06T01:06:07.343Z,99785.38
2023-01-06T01:06:17.349Z,99798.74
2023-01-06T01:06:27.403Z,99790.28
2023-01-06T01:06:37.332Z,99783.06
2023-01-06T01:06:47.416Z,99788.65
2023-01-06T01:06:57.311Z,99787.52
2023-01-06T01:07:07.342Z,99781.58
2023-01-06T01:07:17.330Z,99782.41
2023-01-06T01:07:27.311Z,99783.03
2023-01-06T01:07:37.347Z,99780.59
2023-01-06T01:07:47.319Z,99787.91
2023-01-06T01:07:57.411Z,99783.36
2023-01-06T01:08:07.446Z,99784.38
2023-01-06T01:08:17.363Z,99779.33
2023-01-06T01:08:27.327Z,99783.96
2023-01-06T01:08:37.288Z,99779.22
2023-01-06T01:08:47.425Z,99781.81
2023-01-06T01:08:57.390Z,99777.70
2023-01-06T01:09:07.318Z,99783.14
2023-01-06T01:09:17.433Z,99786.77
2023-01-06T01:09:27.456Z,99777.08
2023-01-06T01:09:37.286Z,99778.99
2023-01-06T01:09:47.298Z,99777.28
2023-01-06T01:09:57.425Z,99775.44
2023-01-06T01:10:07.316Z,99779.56
2023-01-06T01:10:17.319Z,99777.42
2023-01-06T01:10:27.360Z,99778.19
2023-01-06T01:10:37.448Z,99780.34
2023-01-06T01:10:47.325Z,99777.91
2023-01-06T01:10:57.415Z,99777.23
2023-01-06T01:11:07.363Z,99777.67
2023-01-06T01:11:17.300Z,99778.00
2023-01-06T01:11:27.309Z,99772.99
2023-01-06T01:11:37.357Z,99777.45
2023-01-06T01:11:47.355Z,99778.25
2023-01-06T01:11:57.375Z,99774.31
2023-01-06T01:12:07.425Z,99776.83
2023-01-06T01:12:17.330Z,99780.06
2023-01-06T01:12:27.414Z,99776.19
2023-01-06T01:12:37.383Z,99773.73
2023-01-06T01:12:47.422Z,99775.70
2023-01-06T01:12:57.355Z,99776.12
2023-01-06T01:13:07.325Z,99775.92
2023-01-06T01:13:17.396Z,99776.00
2023-01-06T01:13:27.320Z,99772.77
2023-01-06T01:13:37.311Z,99775.57
2023-01-06T01:13:47.319Z,99775.59
2023-01-06T01:13:57.383Z,99776.91
2023-01-06T01:14:07.403Z,99778.23
2023-01-06T01:14:17.314Z,99772.38
2023-01-06T01:14:27.306Z,99776.72
2023-01-06T01:14:37.313Z,99769.90
2023-01-06T01:14:47.428Z,99774.58
2023-01-06T01:14:57.388Z,99769.56
2023-01-06T01:15:07.397Z,99773.53
2023-01-06T01:15:17.369Z,99770.89
2023-01-06T01:15:27.392Z,99771.56
2023-01-06T01:15:37.450Z,99772.87
2023-01-06T01:15:47.436Z,99780.87
2023-01-06T01:15:57.373Z,99771.95
2023-01-06T01:16:07.445Z,99776.66
2023-01-06T01:16:17.336Z,99772.03
2023-01-06T01:16:27.354Z,99772.93
2023-01-06T01:16:37.403Z,99778.95
2023-01-06T01:16:47.355Z,99785.56
2023-01-06T01:16:57.340Z,99775.00
2023-01-06T01:17:07.350Z,99773.27
2023-01-06T01:17:17.418Z,99776.42
2023-01-06T01:17:27.366Z,99771.75
2023-01-06T01:17:37.378Z,99775.72
2023-01-06T01:17:47.357Z,99769.39
2023-01-06T01:17:57.421Z,99770.10
2023-01-06T01:18:07.310Z,99773.34
2023-01-06T01:18:17.422Z,99770.10
2023-01-06T01:18:27.405Z,99778.19
2023-01-06T01:18:37.330Z,99773.08
2023-01-06T01:18:47.370Z,99773.08
2023-01-06T01:18:57.320Z,99775.27
2023-01-06T01:19:07.382Z,99773.75
2023-01-06T01:19:17.383Z,99776.25
2023-01-06T01:19:27.380Z,99777.31
2023-01-06T01:19:37.362Z,99778.73
2023-01-06T01:19:47.403Z,99778.88
2023-01-06T01:19:57.413Z,99770.64
2023-01-06T01:20:07.417Z,99775.89
2023-01-06T01:20:17.343Z,99771.94
2023-01-06T01:20:27.446Z,99773.44
2023-01-06T01:20:37.304Z,99774.31
2023-01-06T01:20:47.369Z,99777.34
2023-01-06T01:20:57.294Z,99774.84
2023-01-06T01:21:07.352Z,99772.12
2023-01-06T01:21:17.428Z,99779.39
2023-01-06T01:21:27.380Z,99776.70
2023-01-06T01:21:37.287Z,99774.57
2023-01-06T01:21:47.299Z,99773.72
2023-01-06T01:21:57.352Z,99765.00
2023-01-06T01:22:07.334Z,99768.75
2023-01-06T01:22:17.328Z,99769.08
2023-01-06T01:22:27.338Z,99772.70
2023-01-06T01:22:37.297Z,99764.45
2023-01-06T01:22:47.354Z,99766.88
2023-01-06T01:22:57.388Z,99769.29
2023-01-06T01:23:07.335Z,99770.08
2023-01-06T01:23:17.428Z,99770.41
2023-01-06T01:23:27.417Z,99772.94
2023-01-06T01:23:37.318Z,99772.09
2023-01-06T01:23:47.292Z,99777.45
2023-01-06T01:23:57.323Z,99778.17
2023-01-06T01:24:07.326Z,99775.04
2023-01-06T01:24:17.325Z,99774.31
2023-01-06T01:24:27.402Z,99774.81
2023-01-06T01:24:37.374Z,99779.67
2023-01-06T01:24:47.325Z,99774.09
2023-01-06T01:24:57.282Z,99770.08
2023-01-06T01:25:07.379Z,99772.83
2023-01-06T01:25:17.413Z,99769.30
2023-01-06T01:25:27.351Z,99770.93
2023-01-06T01:25:37.348Z,99766.97
2023-01-06T01:25:47.377Z,99768.95
2023-01-06T01:25:57.363Z,99771.59
2023-01-06T01:26:07.312Z,99778.12
2023-01-06T01:26:17.355Z,99774.58
2023-01-06T01:26:27.374Z,99770.31
2023-01-06T01:26:37.304Z,99779.06
2023-01-06T01:26:47.412Z,99771.80
2023-01-06T01:26:57.341Z,99769.33
2023-01-06T01:27:07.351Z,99777.82
2023-01-06T01:27:17.420Z,99773.53
2023-01-06T01:27:27.388Z,99773.97
2023-01-06T01:27:37.365Z,99778.48
2023-01-06T01:27:47.401Z,99773.20
2023-01-06T01:27:57.301Z,99776.99
2023-01-06T01:28:07.327Z,99777.67
2023-01-06T01:28:17.406Z,99772.62
2023-01-06T01:28:27.328Z,99778.21
2023-01-06T01:28:37.300Z,99775.84
2023-01-06T01:28:47.360Z,99774.17
2023-01-06T01:28:57.325Z,99779.20
2023-01-06T01:29:07.384Z,99780.05
2023-01-06T01:29:17.324Z,99781.21
2023-01-06T01:29:27.351Z,99783.19
2023-01-06T01:29:37.427Z,99779.95
2023-01-06T01:29:47.409Z,99779.55
2023-01-06T01:29:57.378Z,99777.58
2023-01-06T01:30:07.324Z,99777.58
2023-01-06T01:30:17.314Z,99779.06
2023-01-06T01:30:27.362Z,99773.59
2023-01-06T01:30:37.342Z,99772.46
2023-01-06T01:30:47.384Z,99777.41
2023-01-06T01:30:57.330Z,99789.38
2023-01-06T01:31:07.478Z,99784.44
2023-01-06T01:31:17.390Z,99785.08
2023-01-06T01:31:27.447Z,99785.14
2023-01-06T01:31:37.389Z,99781.77
2023-01-06T01:31:47.301Z,99785.33
2023-01-06T01:31:57.381Z,99782.92
2023-01-06T01:32:07.310Z,99782.69
2023-01-06T01:32:17.405Z,99782.83
2023-01-06T01:32:27.368Z,99778.61
2023-01-06T01:32:37.413Z,99784.80
2023-01-06T01:32:47.359Z,99778.45
2023-01-06T01:32:57.383Z,99778.05
2023-01-06T01:33:07.342Z,99778.70
2023-01-06T01:33:17.404Z,99775.70
2023-01-06T01:33:27.354Z,99777.54
2023-01-06T01:33:37.411Z,99781.66
2023-01-06T01:33:47.421Z,99785.10
2023-01-06T01:33:57.419Z,99777.83
2023-01-06T01:34:07.375Z,99775.88
2023-01-06T01:34:17.296Z,99777.36
2023-01-06T01:34:27.423Z,99778.90
2023-01-06T01:34:37.370Z,99782.92
2023-01-06T01:34:47.357Z,99780.30
2023-01-06T01:34:57.411Z,99776.68
2023-01-06T01:35:07.351Z,99777.28
2023-01-06T01:35:17.356Z,99771.93
2023-01-06T01:35:27.370Z,99775.80
2023-01-06T01:35:37.309Z,99774.92
2023-01-06T01:35:47.408Z,99776.84
2023-01-06T01:35:57.379Z,99782.52
2023-01-06T01:36:07.306Z,99771.23
2023-01-06T01:36:17.372Z,99780.09
2023-01-06T01:36:27.383Z,99775.83
2023-01-06T01:36:37.410Z,99776.23
2023-01-06T01:36:47.292Z,99775.42
2023-01-06T01:36:57.340Z,99776.19
2023-01-06T01:37:07.357Z,99773.27
2023-01-06T01:37:17.394Z,99770.73
2023-01-06T01:37:27.356Z,99770.57
2023-01-06T01:37:37.339Z,99780.22
2023-01-06T01:37:47.378Z,99771.23
2023-01-06T01:38:01.137Z,99774.26
2023-01-06T01:38:07.312Z,99780.44
2023-01-06T01:38:17.335Z,99773.52
2023-01-06T01:38:27.351Z,99777.31
2023-01-06T01:38:37.359Z,99771.56
2023-01-06T01:38:47.416Z,99770.36
2023-01-06T01:38:57.371Z,99776.23
2023-01-06T01:39:07.340Z,99775.31
2023-01-06T01:39:17.339Z,99771.49
2023-01-06T01:39:27.384Z,99769.62
2023-01-06T01:39:37.335Z,99774.41
2023-01-06T01:39:47.291Z,99771.74
2023-01-06T01:39:57.298Z,99772.67
2023-01-06T01:40:07.400Z,99771.52
2023-01-06T01:40:17.362Z,99772.51
2023-01-06T01:40:27.403Z,99766.38
2023-01-06T01:40:37.407Z,99768.72
2023-01-06T01:40:47.421Z,99766.38
2023-01-06T01:40:57.421Z,99773.34
2023-01-06T01:41:07.357Z,99770.27
2023-01-06T01:41:17.382Z,99776.37
2023-01-06T01:41:27.313Z,99770.32
2023-01-06T01:41:37.427Z,99773.17
2023-01-06T01:41:47.363Z,99770.57
2023-01-06T01:41:57.354Z,99777.47
2023-01-06T01:42:07.320Z,99776.09
2023-01-06T01:42:17.427Z,99770.63
2023-01-06T01:42:27.402Z,99768.52
2023-01-06T01:42:37.322Z,99767.50
2023-01-06T01:42:47.413Z,99769.17
2023-01-06T01:42:57.298Z,99765.03
2023-01-06T01:43:07.348Z,99767.06
2023-01-06T01:43:17.426Z,99764.86
2023-01-06T01:43:27.424Z,99763.16
2023-01-06T01:43:37.416Z,99762.61
2023-01-06T01:43:47.289Z,99761.38
2023-01-06T01:43:57.294Z,99763.38
2023-01-06T01:44:07.356Z,99765.66
2023-01-06T01:44:17.346Z,99761.22
2023-01-06T01:44:27.404Z,99756.84
2023-01-06T01:44:37.367Z,99761.75
2023-01-06T01:44:47.418Z,99762.08
2023-01-06T01:44:57.309Z,99765.19
2023-01-06T01:45:07.332Z,99764.88
2023-01-06T01:45:17.314Z,99782.70
2023-01-06T01:45:27.392Z,99762.24
2023-01-06T01:45:37.346Z,99764.50
2023-01-06T01:45:47.363Z,99758.98
2023-01-06T01:45:57.498Z,99760.58
2023-01-06T01:46:07.401Z,99764.92
2023-01-06T01:46:17.439Z,99760.72
2023-01-06T01:46:27.515Z,99762.86
2023-01-06T01:46:37.369Z,99761.16
2023-01-06T01:46:47.367Z,99769.61
2023-01-06T01:46:57.360Z,99767.36
2023-01-06T01:47:07.387Z,99760.09
2023-01-06T01:47:17.299Z,99757.71
2023-01-06T01:47:27.360Z,99758.45
2023-01-06T01:47:37.402Z,99760.67
2023-01-06T01:47:47.408Z,99759.48
2023-01-06T01:47:57.356Z,99766.12
2023-01-06T01:48:07.412Z,99763.77
2023-01-06T01:48:17.365Z,99759.64
2023-01-06T01:48:27.367Z,99761.89
2023-01-06T01:48:37.362Z,99769.38
2023-01-06T01:48:47.404Z,99763.38
2023-01-06T01:48:57.325Z,99771.62
2023-01-06T01:49:07.290Z,99772.06
2023-01-06T01:49:17.295Z,99766.57
2023-01-06T01:49:27.328Z,99763.11
2023-01-06T01:49:37.360Z,99765.25
2023-01-06T01:49:47.371Z,99772.06
2023-01-06T01:49:57.383Z,99765.75
2023-01-06T01:50:07.383Z,99757.83
2023-01-06T01:50:17.471Z,99761.73
2023-01-06T01:50:27.345Z,99768.44
2023-01-06T01:50:37.445Z,99764.64
2023-01-06T01:50:47.310Z,99764.59
2023-01-06T01:50:57.345Z,99760.14
2023-01-06T01:51:07.295Z,99764.42
2023-01-06T01:51:17.308Z,99756.86
2023-01-06T01:51:27.341Z,99762.62
2023-01-06T01:51:37.381Z,99761.65
2023-01-06T01:51:47.399Z,99758.76
2023-01-06T01:51:57.332Z,99758.33
2023-01-06T01:52:07.362Z,99772.19
2023-01-06T01:52:17.312Z,99764.97
2023-01-06T01:52:27.339Z,99770.97
2023-01-06T01:52:37.367Z,99767.28
2023-01-06T01:52:47.363Z,99764.12
2023-01-06T01:52:57.424Z,99760.24
2023-01-06T01:53:07.318Z,99755.95
2023-01-06T01:53:17.338Z,99758.20
2023-01-06T01:53:27.421Z,99764.39
2023-01-06T01:53:37.303Z,99763.95
2023-01-06T01:53:47.396Z,99754.05
2023-01-06T01:53:57.301Z,99760.16
2023-01-06T01:54:07.339Z,99753.75
2023-01-06T01:54:17.373Z,99762.00
2023-01-06T01:54:27.299Z,99753.91
2023-01-06T01:54:37.396Z,99752.56
2023-01-06T01:54:47.323Z,99759.36
2023-01-06T01:54:57.387Z,99755.05
2023-01-06T01:55:07.306Z,99753.42
2023-01-06T01:55:17.433Z,99751.41
2023-01-06T01:55:27.405Z,99757.22
2023-01-06T01:55:37.382Z,99752.67
2023-01-06T01:55:47.345Z,99755.70
2023-01-06T01:55:57.429Z,99754.24
2023-01-06T01:56:07.374Z,99757.88
2023-01-06T01:56:17.343Z,99753.66
2023-01-06T01:56:27.335Z,99751.08
2023-01-06T01:56:37.331Z,99755.56
2023-01-06T01:56:47.323Z,99755.31
2023-01-06T01:56:57.285Z,99762.50
2023-01-06T01:57:07.423Z,99762.14
2023-01-06T01:57:17.348Z,99754.14
2023-01-06T01:57:27.302Z,99759.20